sensor_id;sensor_type;location;lat;lon;timestamp;P1;durP1;ratioP1;P2;durP2;ratioP2
80707;SDS011;70222;49.204;-122.940;2023-07-28T00:01:13;3.50;;;2.45;;
80707;SDS011;70222;49.204;-122.940;2023-07-28T00:03:39;3.00;;;2.33;;
80707;SDS011;70222;49.204;-122.940;2023-07-28T00:06:05;3.33;;;2.10;;
80707;SDS011;70222;49.204;-122.940;2023-07-28T00:08:31;2.85;;;2.30;;
80707;SDS011;70222;49.204;-122.940;2023-07-28T00:10:57;4.35;;;2.20;;
80707;SDS011;70222;49.204;-122.940;2023-07-28T00:13:24;3.33;;;2.13;;
80707;SDS011;70222;49.204;-122.940;2023-07-28T00:18:15;3.10;;;2.35;;
80707;SDS011;70222;49.204;-122.940;2023-07-28T00:20:43;4.30;;;2.20;;
80707;SDS011;70222;49.204;-122.940;2023-07-28T00:23:09;2.97;;;2.60;;
80707;SDS011;70222;49.204;-122.940;2023-07-28T00:25:35;2.75;;;2.10;;
80707;SDS011;70222;49.204;-122.940;2023-07-28T00:28:02;3.25;;;2.20;;
80707;SDS011;70222;49.204;-122.940;2023-07-28T00:30:28;4.38;;;2.53;;
80707;SDS011;70222;49.204;-122.940;2023-07-28T00:32:56;2.78;;;2.40;;
80707;SDS011;70222;49.204;-122.940;2023-07-28T00:35:22;2.92;;;2.00;;
80707;SDS011;70222;49.204;-122.940;2023-07-28T00:37:48;3.38;;;1.95;;
80707;SDS011;70222;49.204;-122.940;2023-07-28T00:40:14;3.20;;;2.40;;
80707;SDS011;70222;49.204;-122.940;2023-07-28T00:42:40;2.50;;;2.10;;
80707;SDS011;70222;49.204;-122.940;2023-07-28T00:45:07;3.58;;;2.28;;
80707;SDS011;70222;49.204;-122.940;2023-07-28T00:47:33;3.35;;;2.30;;
80707;SDS011;70222;49.204;-122.940;2023-07-28T00:50:00;2.75;;;1.98;;
80707;SDS011;70222;49.204;-122.940;2023-07-28T00:52:26;2.83;;;2.30;;
80707;SDS011;70222;49.204;-122.940;2023-07-28T00:54:52;3.22;;;2.17;;
80707;SDS011;70222;49.204;-122.940;2023-07-28T00:57:19;3.47;;;2.22;;
80707;SDS011;70222;49.204;-122.940;2023-07-28T00:59:45;3.85;;;2.40;;
80707;SDS011;70222;49.204;-122.940;2023-07-28T01:02:12;3.25;;;2.15;;
80707;SDS011;70222;49.204;-122.940;2023-07-28T01:04:38;3.00;;;2.30;;
80707;SDS011;70222;49.204;-122.940;2023-07-28T01:07:15;3.42;;;2.00;;
80707;SDS011;70222;49.204;-122.940;2023-07-28T01:10:00;6.82;;;2.65;;
80707;SDS011;70222;49.204;-122.940;2023-07-28T01:12:28;3.08;;;2.35;;
80707;SDS011;70222;49.204;-122.940;2023-07-28T01:14:54;3.92;;;2.10;;
80707;SDS011;70222;49.204;-122.940;2023-07-28T01:17:20;4.03;;;2.83;;
80707;SDS011;70222;49.204;-122.940;2023-07-28T01:19:49;5.70;;;3.25;;
80707;SDS011;70222;49.204;-122.940;2023-07-28T01:25:12;5.97;;;2.70;;
80707;SDS011;70222;49.204;-122.940;2023-07-28T01:27:41;3.00;;;2.30;;
80707;SDS011;70222;49.204;-122.940;2023-07-28T01:30:11;3.50;;;2.25;;
80707;SDS011;70222;49.204;-122.940;2023-07-28T01:35:59;3.60;;;2.00;;
80707;SDS011;70222;49.204;-122.940;2023-07-28T01:38:26;3.05;;;2.20;;
80707;SDS011;70222;49.204;-122.940;2023-07-28T01:40:53;8.23;;;2.67;;
80707;SDS011;70222;49.204;-122.940;2023-07-28T01:43:19;4.32;;;2.53;;
80707;SDS011;70222;49.204;-122.940;2023-07-28T01:45:46;3.30;;;2.40;;
80707;SDS011;70222;49.204;-122.940;2023-07-28T01:48:12;2.80;;;2.10;;
80707;SDS011;70222;49.204;-122.940;2023-07-28T01:50:38;4.22;;;2.17;;
80707;SDS011;70222;49.204;-122.940;2023-07-28T01:53:05;3.08;;;2.30;;
80707;SDS011;70222;49.204;-122.940;2023-07-28T01:55:32;4.15;;;2.50;;
80707;SDS011;70222;49.204;-122.940;2023-07-28T01:57:59;4.07;;;2.17;;
80707;SDS011;70222;49.204;-122.940;2023-07-28T02:00:26;3.30;;;2.13;;
80707;SDS011;70222;49.204;-122.940;2023-07-28T02:05:19;3.38;;;2.05;;
80707;SDS011;70222;49.204;-122.940;2023-07-28T02:07:46;3.30;;;2.05;;
80707;SDS011;70222;49.204;-122.940;2023-07-28T02:10:12;3.28;;;2.08;;
80707;SDS011;70222;49.204;-122.940;2023-07-28T02:12:38;3.28;;;2.00;;
80707;SDS011;70222;49.204;-122.940;2023-07-28T02:15:05;2.65;;;2.05;;
80707;SDS011;70222;49.204;-122.940;2023-07-28T02:17:32;3.60;;;2.20;;
80707;SDS011;70222;49.204;-122.940;2023-07-28T02:19:58;3.22;;;2.28;;
80707;SDS011;70222;49.204;-122.940;2023-07-28T02:22:26;2.83;;;2.20;;
80707;SDS011;70222;49.204;-122.940;2023-07-28T02:24:52;3.85;;;2.28;;
80707;SDS011;70222;49.204;-122.940;2023-07-28T02:27:18;3.75;;;2.15;;
80707;SDS011;70222;49.204;-122.940;2023-07-28T02:29:44;3.70;;;2.20;;
80707;SDS011;70222;49.204;-122.940;2023-07-28T02:32:11;4.15;;;2.45;;
80707;SDS011;70222;49.204;-122.940;2023-07-28T02:34:37;3.10;;;2.15;;
80707;SDS011;70222;49.204;-122.940;2023-07-28T02:37:03;4.18;;;2.20;;
80707;SDS011;70222;49.204;-122.940;2023-07-28T02:39:29;3.67;;;2.10;;
80707;SDS011;70222;49.204;-122.940;2023-07-28T02:41:55;4.75;;;2.30;;
80707;SDS011;70222;49.204;-122.940;2023-07-28T02:47:43;3.38;;;2.10;;
80707;SDS011;70222;49.204;-122.940;2023-07-28T02:50:09;3.78;;;2.50;;
80707;SDS011;70222;49.204;-122.940;2023-07-28T02:52:35;3.65;;;2.35;;
80707;SDS011;70222;49.204;-122.940;2023-07-28T02:55:01;3.00;;;2.03;;
80707;SDS011;70222;49.204;-122.940;2023-07-28T02:57:27;2.78;;;2.38;;
80707;SDS011;70222;49.204;-122.940;2023-07-28T02:59:53;3.50;;;2.45;;
80707;SDS011;70222;49.204;-122.940;2023-07-28T03:02:20;2.63;;;2.00;;
80707;SDS011;70222;49.204;-122.940;2023-07-28T03:04:46;2.83;;;2.15;;
80707;SDS011;70222;49.204;-122.940;2023-07-28T03:07:12;4.53;;;2.50;;
80707;SDS011;70222;49.204;-122.940;2023-07-28T03:09:38;3.85;;;2.55;;
80707;SDS011;70222;49.204;-122.940;2023-07-28T03:12:04;3.45;;;2.30;;
80707;SDS011;70222;49.204;-122.940;2023-07-28T03:14:31;3.90;;;2.50;;
80707;SDS011;70222;49.204;-122.940;2023-07-28T03:16:57;3.03;;;2.20;;
80707;SDS011;70222;49.204;-122.940;2023-07-28T03:19:23;3.60;;;2.55;;
80707;SDS011;70222;49.204;-122.940;2023-07-28T03:21:50;3.17;;;2.38;;
80707;SDS011;70222;49.204;-122.940;2023-07-28T03:27:38;3.47;;;2.30;;
80707;SDS011;70222;49.204;-122.940;2023-07-28T03:30:04;4.00;;;2.55;;
80707;SDS011;70222;49.204;-122.940;2023-07-28T03:32:32;4.03;;;2.20;;
80707;SDS011;70222;49.204;-122.940;2023-07-28T03:34:58;4.05;;;2.30;;
80707;SDS011;70222;49.204;-122.940;2023-07-28T03:37:24;5.63;;;2.60;;
80707;SDS011;70222;49.204;-122.940;2023-07-28T03:39:50;3.35;;;2.30;;
80707;SDS011;70222;49.204;-122.940;2023-07-28T03:42:16;3.08;;;2.40;;
80707;SDS011;70222;49.204;-122.940;2023-07-28T03:44:43;3.70;;;2.65;;
80707;SDS011;70222;49.204;-122.940;2023-07-28T03:47:09;6.13;;;2.67;;
80707;SDS011;70222;49.204;-122.940;2023-07-28T03:49:35;3.92;;;2.10;;
80707;SDS011;70222;49.204;-122.940;2023-07-28T03:52:01;3.08;;;2.13;;
80707;SDS011;70222;49.204;-122.940;2023-07-28T03:54:27;4.72;;;2.30;;
80707;SDS011;70222;49.204;-122.940;2023-07-28T03:56:53;4.57;;;2.85;;
80707;SDS011;70222;49.204;-122.940;2023-07-28T03:59:19;3.30;;;2.17;;
80707;SDS011;70222;49.204;-122.940;2023-07-28T04:01:45;3.15;;;2.38;;
80707;SDS011;70222;49.204;-122.940;2023-07-28T04:04:13;3.63;;;2.20;;
80707;SDS011;70222;49.204;-122.940;2023-07-28T04:06:40;3.80;;;2.40;;
80707;SDS011;70222;49.204;-122.940;2023-07-28T04:09:14;3.22;;;2.28;;
80707;SDS011;70222;49.204;-122.940;2023-07-28T04:11:41;3.22;;;2.42;;
80707;SDS011;70222;49.204;-122.940;2023-07-28T04:14:07;3.45;;;2.25;;
80707;SDS011;70222;49.204;-122.940;2023-07-28T04:16:33;5.28;;;2.42;;
80707;SDS011;70222;49.204;-122.940;2023-07-28T04:18:59;2.80;;;2.00;;
80707;SDS011;70222;49.204;-122.940;2023-07-28T04:21:25;3.50;;;2.20;;
80707;SDS011;70222;49.204;-122.940;2023-07-28T04:23:53;3.53;;;2.35;;
80707;SDS011;70222;49.204;-122.940;2023-07-28T04:26:19;4.90;;;2.17;;
80707;SDS011;70222;49.204;-122.940;2023-07-28T04:28:45;5.05;;;2.38;;
80707;SDS011;70222;49.204;-122.940;2023-07-28T04:31:11;3.88;;;2.50;;
80707;SDS011;70222;49.204;-122.940;2023-07-28T04:33:40;3.30;;;2.30;;
80707;SDS011;70222;49.204;-122.940;2023-07-28T04:36:07;2.47;;;2.03;;
80707;SDS011;70222;49.204;-122.940;2023-07-28T04:38:33;3.80;;;2.78;;
80707;SDS011;70222;49.204;-122.940;2023-07-28T04:40:59;4.10;;;2.38;;
80707;SDS011;70222;49.204;-122.940;2023-07-28T04:43:25;4.85;;;2.33;;
80707;SDS011;70222;49.204;-122.940;2023-07-28T04:45:51;4.53;;;3.00;;
80707;SDS011;70222;49.204;-122.940;2023-07-28T04:48:18;5.10;;;2.30;;
80707;SDS011;70222;49.204;-122.940;2023-07-28T04:50:47;3.65;;;2.58;;
80707;SDS011;70222;49.204;-122.940;2023-07-28T04:53:13;3.42;;;2.45;;
80707;SDS011;70222;49.204;-122.940;2023-07-28T04:55:39;3.60;;;2.50;;
80707;SDS011;70222;49.204;-122.940;2023-07-28T04:58:06;3.70;;;2.40;;
80707;SDS011;70222;49.204;-122.940;2023-07-28T05:00:32;3.83;;;2.80;;
80707;SDS011;70222;49.204;-122.940;2023-07-28T05:02:58;6.25;;;3.25;;
80707;SDS011;70222;49.204;-122.940;2023-07-28T05:05:25;5.95;;;3.03;;
80707;SDS011;70222;49.204;-122.940;2023-07-28T05:07:51;4.38;;;2.92;;
80707;SDS011;70222;49.204;-122.940;2023-07-28T05:10:17;3.55;;;2.90;;
80707;SDS011;70222;49.204;-122.940;2023-07-28T05:12:43;5.00;;;2.55;;
80707;SDS011;70222;49.204;-122.940;2023-07-28T05:15:09;3.13;;;2.42;;
80707;SDS011;70222;49.204;-122.940;2023-07-28T05:17:36;3.75;;;2.33;;
80707;SDS011;70222;49.204;-122.940;2023-07-28T05:20:03;4.82;;;2.53;;
80707;SDS011;70222;49.204;-122.940;2023-07-28T05:22:29;3.25;;;2.20;;
80707;SDS011;70222;49.204;-122.940;2023-07-28T05:24:55;3.90;;;2.50;;
80707;SDS011;70222;49.204;-122.940;2023-07-28T05:27:21;3.08;;;2.40;;
80707;SDS011;70222;49.204;-122.940;2023-07-28T05:29:47;4.15;;;3.10;;
80707;SDS011;70222;49.204;-122.940;2023-07-28T05:32:13;4.65;;;2.70;;
80707;SDS011;70222;49.204;-122.940;2023-07-28T05:34:42;3.83;;;2.60;;
80707;SDS011;70222;49.204;-122.940;2023-07-28T05:37:09;3.83;;;2.50;;
80707;SDS011;70222;49.204;-122.940;2023-07-28T05:39:35;4.88;;;2.60;;
80707;SDS011;70222;49.204;-122.940;2023-07-28T05:42:02;4.25;;;2.72;;
80707;SDS011;70222;49.204;-122.940;2023-07-28T05:44:28;3.55;;;2.67;;
80707;SDS011;70222;49.204;-122.940;2023-07-28T05:46:54;4.20;;;2.60;;
80707;SDS011;70222;49.204;-122.940;2023-07-28T05:49:20;4.45;;;2.65;;
80707;SDS011;70222;49.204;-122.940;2023-07-28T05:51:47;5.05;;;2.53;;
80707;SDS011;70222;49.204;-122.940;2023-07-28T05:54:13;5.07;;;3.20;;
80707;SDS011;70222;49.204;-122.940;2023-07-28T05:56:42;3.05;;;2.42;;
80707;SDS011;70222;49.204;-122.940;2023-07-28T05:59:11;3.85;;;2.70;;
80707;SDS011;70222;49.204;-122.940;2023-07-28T06:01:37;4.32;;;2.95;;
80707;SDS011;70222;49.204;-122.940;2023-07-28T06:04:04;4.63;;;2.40;;
80707;SDS011;70222;49.204;-122.940;2023-07-28T06:06:30;3.88;;;2.42;;
80707;SDS011;70222;49.204;-122.940;2023-07-28T06:08:56;4.07;;;2.55;;
80707;SDS011;70222;49.204;-122.940;2023-07-28T06:11:22;4.35;;;2.70;;
80707;SDS011;70222;49.204;-122.940;2023-07-28T06:13:49;3.90;;;3.30;;
80707;SDS011;70222;49.204;-122.940;2023-07-28T06:16:15;4.45;;;2.97;;
80707;SDS011;70222;49.204;-122.940;2023-07-28T06:18:41;5.45;;;2.83;;
80707;SDS011;70222;49.204;-122.940;2023-07-28T06:21:08;5.18;;;2.63;;
80707;SDS011;70222;49.204;-122.940;2023-07-28T06:23:34;3.72;;;2.42;;
80707;SDS011;70222;49.204;-122.940;2023-07-28T06:26:00;3.42;;;2.30;;
80707;SDS011;70222;49.204;-122.940;2023-07-28T06:28:26;4.85;;;2.92;;
80707;SDS011;70222;49.204;-122.940;2023-07-28T06:30:53;3.95;;;2.70;;
80707;SDS011;70222;49.204;-122.940;2023-07-28T06:33:23;3.90;;;2.40;;
80707;SDS011;70222;49.204;-122.940;2023-07-28T06:35:53;4.00;;;2.83;;
80707;SDS011;70222;49.204;-122.940;2023-07-28T06:38:19;3.60;;;2.42;;
80707;SDS011;70222;49.204;-122.940;2023-07-28T06:40:46;3.47;;;2.40;;
80707;SDS011;70222;49.204;-122.940;2023-07-28T06:43:12;3.30;;;2.50;;
80707;SDS011;70222;49.204;-122.940;2023-07-28T06:45:38;4.05;;;2.53;;
80707;SDS011;70222;49.204;-122.940;2023-07-28T06:48:04;3.97;;;2.83;;
80707;SDS011;70222;49.204;-122.940;2023-07-28T06:50:30;4.18;;;2.60;;
80707;SDS011;70222;49.204;-122.940;2023-07-28T06:52:57;4.18;;;2.38;;
80707;SDS011;70222;49.204;-122.940;2023-07-28T06:55:23;4.85;;;2.63;;
80707;SDS011;70222;49.204;-122.940;2023-07-28T06:57:49;4.22;;;2.67;;
80707;SDS011;70222;49.204;-122.940;2023-07-28T07:00:16;3.38;;;2.35;;
80707;SDS011;70222;49.204;-122.940;2023-07-28T07:02:45;5.03;;;2.75;;
80707;SDS011;70222;49.204;-122.940;2023-07-28T07:05:11;4.53;;;2.65;;
80707;SDS011;70222;49.204;-122.940;2023-07-28T07:07:37;3.85;;;2.40;;
80707;SDS011;70222;49.204;-122.940;2023-07-28T07:10:05;3.42;;;2.60;;
80707;SDS011;70222;49.204;-122.940;2023-07-28T07:12:31;3.83;;;2.40;;
80707;SDS011;70222;49.204;-122.940;2023-07-28T07:14:57;4.28;;;2.72;;
80707;SDS011;70222;49.204;-122.940;2023-07-28T07:17:23;3.88;;;2.33;;
80707;SDS011;70222;49.204;-122.940;2023-07-28T07:19:50;3.65;;;2.50;;
80707;SDS011;70222;49.204;-122.940;2023-07-28T07:22:16;3.33;;;2.40;;
80707;SDS011;70222;49.204;-122.940;2023-07-28T07:24:42;3.80;;;2.72;;
80707;SDS011;70222;49.204;-122.940;2023-07-28T07:27:08;3.38;;;2.70;;
80707;SDS011;70222;49.204;-122.940;2023-07-28T07:29:37;4.05;;;3.38;;
80707;SDS011;70222;49.204;-122.940;2023-07-28T07:32:05;3.08;;;2.40;;
80707;SDS011;70222;49.204;-122.940;2023-07-28T07:34:32;4.85;;;2.92;;
80707;SDS011;70222;49.204;-122.940;2023-07-28T07:36:59;3.47;;;2.30;;
80707;SDS011;70222;49.204;-122.940;2023-07-28T07:39:25;5.30;;;3.65;;
80707;SDS011;70222;49.204;-122.940;2023-07-28T07:41:51;4.28;;;2.75;;
80707;SDS011;70222;49.204;-122.940;2023-07-28T07:44:17;3.67;;;2.60;;
80707;SDS011;70222;49.204;-122.940;2023-07-28T07:46:43;4.45;;;2.60;;
80707;SDS011;70222;49.204;-122.940;2023-07-28T07:49:09;4.18;;;2.70;;
80707;SDS011;70222;49.204;-122.940;2023-07-28T07:51:35;3.45;;;2.40;;
80707;SDS011;70222;49.204;-122.940;2023-07-28T07:54:01;3.78;;;2.75;;
80707;SDS011;70222;49.204;-122.940;2023-07-28T07:56:28;4.22;;;2.85;;
80707;SDS011;70222;49.204;-122.940;2023-07-28T07:58:54;3.67;;;2.65;;
80707;SDS011;70222;49.204;-122.940;2023-07-28T08:01:20;3.95;;;2.67;;
80707;SDS011;70222;49.204;-122.940;2023-07-28T08:07:08;3.97;;;2.67;;
80707;SDS011;70222;49.204;-122.940;2023-07-28T08:09:34;4.03;;;2.60;;
80707;SDS011;70222;49.204;-122.940;2023-07-28T08:12:00;4.10;;;2.70;;
80707;SDS011;70222;49.204;-122.940;2023-07-28T08:14:27;5.20;;;2.65;;
80707;SDS011;70222;49.204;-122.940;2023-07-28T08:16:53;3.80;;;2.53;;
80707;SDS011;70222;49.204;-122.940;2023-07-28T08:19:19;3.85;;;2.60;;
80707;SDS011;70222;49.204;-122.940;2023-07-28T08:21:46;3.90;;;2.58;;
80707;SDS011;70222;49.204;-122.940;2023-07-28T08:27:34;3.60;;;2.70;;
80707;SDS011;70222;49.204;-122.940;2023-07-28T08:30:00;3.95;;;2.50;;
80707;SDS011;70222;49.204;-122.940;2023-07-28T08:32:26;3.65;;;2.30;;
80707;SDS011;70222;49.204;-122.940;2023-07-28T08:37:19;5.07;;;2.45;;
80707;SDS011;70222;49.204;-122.940;2023-07-28T08:39:45;3.80;;;2.47;;
80707;SDS011;70222;49.204;-122.940;2023-07-28T08:42:11;4.85;;;2.80;;
80707;SDS011;70222;49.204;-122.940;2023-07-28T08:44:37;6.32;;;2.97;;
80707;SDS011;70222;49.204;-122.940;2023-07-28T08:47:04;4.00;;;2.60;;
80707;SDS011;70222;49.204;-122.940;2023-07-28T08:49:31;3.40;;;2.47;;
80707;SDS011;70222;49.204;-122.940;2023-07-28T08:51:59;4.93;;;2.55;;
80707;SDS011;70222;49.204;-122.940;2023-07-28T08:54:26;4.60;;;2.85;;
80707;SDS011;70222;49.204;-122.940;2023-07-28T08:56:52;3.85;;;2.80;;
80707;SDS011;70222;49.204;-122.940;2023-07-28T08:59:22;3.88;;;2.92;;
80707;SDS011;70222;49.204;-122.940;2023-07-28T09:01:51;3.70;;;3.03;;
80707;SDS011;70222;49.204;-122.940;2023-07-28T09:06:47;3.30;;;2.33;;
80707;SDS011;70222;49.204;-122.940;2023-07-28T09:09:15;3.17;;;2.50;;
80707;SDS011;70222;49.204;-122.940;2023-07-28T09:11:45;3.97;;;2.72;;
80707;SDS011;70222;49.204;-122.940;2023-07-28T09:14:13;3.17;;;2.40;;
80707;SDS011;70222;49.204;-122.940;2023-07-28T09:16:44;4.00;;;2.50;;
80707;SDS011;70222;49.204;-122.940;2023-07-28T09:19:11;4.63;;;2.72;;
80707;SDS011;70222;49.204;-122.940;2023-07-28T09:21:39;4.45;;;2.70;;
80707;SDS011;70222;49.204;-122.940;2023-07-28T09:24:06;3.97;;;2.75;;
80707;SDS011;70222;49.204;-122.940;2023-07-28T09:26:40;3.83;;;2.50;;
80707;SDS011;70222;49.204;-122.940;2023-07-28T09:29:13;4.85;;;2.40;;
80707;SDS011;70222;49.204;-122.940;2023-07-28T09:31:41;3.15;;;2.38;;
80707;SDS011;70222;49.204;-122.940;2023-07-28T09:36:34;4.20;;;2.75;;
80707;SDS011;70222;49.204;-122.940;2023-07-28T09:39:01;4.18;;;2.50;;
80707;SDS011;70222;49.204;-122.940;2023-07-28T09:41:31;3.47;;;2.72;;
80707;SDS011;70222;49.204;-122.940;2023-07-28T09:43:59;5.55;;;2.70;;
80707;SDS011;70222;49.204;-122.940;2023-07-28T09:46:25;3.97;;;2.60;;
80707;SDS011;70222;49.204;-122.940;2023-07-28T09:48:55;3.60;;;2.60;;
80707;SDS011;70222;49.204;-122.940;2023-07-28T09:51:22;2.85;;;2.20;;
80707;SDS011;70222;49.204;-122.940;2023-07-28T09:54:04;4.55;;;2.72;;
80707;SDS011;70222;49.204;-122.940;2023-07-28T09:56:33;3.88;;;2.50;;
80707;SDS011;70222;49.204;-122.940;2023-07-28T09:59:01;4.57;;;2.55;;
80707;SDS011;70222;49.204;-122.940;2023-07-28T10:01:31;3.83;;;2.60;;
80707;SDS011;70222;49.204;-122.940;2023-07-28T10:03:58;3.67;;;3.00;;
80707;SDS011;70222;49.204;-122.940;2023-07-28T10:06:24;4.00;;;2.50;;
80707;SDS011;70222;49.204;-122.940;2023-07-28T10:08:51;5.30;;;3.47;;
80707;SDS011;70222;49.204;-122.940;2023-07-28T10:11:17;3.17;;;2.85;;
80707;SDS011;70222;49.204;-122.940;2023-07-28T10:17:06;5.25;;;2.72;;
80707;SDS011;70222;49.204;-122.940;2023-07-28T10:19:36;3.60;;;2.53;;
80707;SDS011;70222;49.204;-122.940;2023-07-28T10:22:08;4.57;;;2.97;;
80707;SDS011;70222;49.204;-122.940;2023-07-28T10:24:53;4.03;;;2.78;;
80707;SDS011;70222;49.204;-122.940;2023-07-28T10:27:31;4.88;;;2.78;;
80707;SDS011;70222;49.204;-122.940;2023-07-28T10:30:01;3.58;;;2.70;;
80707;SDS011;70222;49.204;-122.940;2023-07-28T10:32:37;3.63;;;2.90;;
80707;SDS011;70222;49.204;-122.940;2023-07-28T10:37:43;4.50;;;2.85;;
80707;SDS011;70222;49.204;-122.940;2023-07-28T10:43:00;4.72;;;3.20;;
80707;SDS011;70222;49.204;-122.940;2023-07-28T10:45:29;4.43;;;2.50;;
80707;SDS011;70222;49.204;-122.940;2023-07-28T10:47:57;4.07;;;2.72;;
80707;SDS011;70222;49.204;-122.940;2023-07-28T10:50:29;3.80;;;2.65;;
80707;SDS011;70222;49.204;-122.940;2023-07-28T10:52:56;4.28;;;3.20;;
80707;SDS011;70222;49.204;-122.940;2023-07-28T10:55:23;4.10;;;3.13;;
80707;SDS011;70222;49.204;-122.940;2023-07-28T10:57:53;4.10;;;3.13;;
80707;SDS011;70222;49.204;-122.940;2023-07-28T11:00:20;4.68;;;2.63;;
80707;SDS011;70222;49.204;-122.940;2023-07-28T11:02:48;5.28;;;2.75;;
80707;SDS011;70222;49.204;-122.940;2023-07-28T11:05:24;4.53;;;2.80;;
80707;SDS011;70222;49.204;-122.940;2023-07-28T11:07:55;4.13;;;2.58;;
80707;SDS011;70222;49.204;-122.940;2023-07-28T11:10:23;3.78;;;2.67;;
80707;SDS011;70222;49.204;-122.940;2023-07-28T11:12:51;5.35;;;2.90;;
80707;SDS011;70222;49.204;-122.940;2023-07-28T11:15:18;4.07;;;2.63;;
80707;SDS011;70222;49.204;-122.940;2023-07-28T11:17:48;4.15;;;2.50;;
80707;SDS011;70222;49.204;-122.940;2023-07-28T11:20:24;3.88;;;2.78;;
80707;SDS011;70222;49.204;-122.940;2023-07-28T11:22:54;3.80;;;2.88;;
80707;SDS011;70222;49.204;-122.940;2023-07-28T11:25:22;5.03;;;2.60;;
80707;SDS011;70222;49.204;-122.940;2023-07-28T11:27:50;4.72;;;3.05;;
80707;SDS011;70222;49.204;-122.940;2023-07-28T11:30:17;6.03;;;3.08;;
80707;SDS011;70222;49.204;-122.940;2023-07-28T11:32:48;4.10;;;2.90;;
80707;SDS011;70222;49.204;-122.940;2023-07-28T11:35:16;4.65;;;3.33;;
80707;SDS011;70222;49.204;-122.940;2023-07-28T11:37:43;5.03;;;3.45;;
80707;SDS011;70222;49.204;-122.940;2023-07-28T11:40:13;4.78;;;2.92;;
80707;SDS011;70222;49.204;-122.940;2023-07-28T11:45:16;4.25;;;3.33;;
80707;SDS011;70222;49.204;-122.940;2023-07-28T11:48:03;4.55;;;3.30;;
80707;SDS011;70222;49.204;-122.940;2023-07-28T11:50:40;3.95;;;2.90;;
80707;SDS011;70222;49.204;-122.940;2023-07-28T11:53:10;4.30;;;3.17;;
80707;SDS011;70222;49.204;-122.940;2023-07-28T11:55:39;4.97;;;3.58;;
80707;SDS011;70222;49.204;-122.940;2023-07-28T11:58:05;5.00;;;3.30;;
80707;SDS011;70222;49.204;-122.940;2023-07-28T12:00:36;5.22;;;3.10;;
80707;SDS011;70222;49.204;-122.940;2023-07-28T12:03:08;4.65;;;2.90;;
80707;SDS011;70222;49.204;-122.940;2023-07-28T12:05:37;6.30;;;3.10;;
80707;SDS011;70222;49.204;-122.940;2023-07-28T12:08:07;5.43;;;3.20;;
80707;SDS011;70222;49.204;-122.940;2023-07-28T12:10:33;5.45;;;3.40;;
80707;SDS011;70222;49.204;-122.940;2023-07-28T12:13:06;4.65;;;3.10;;
80707;SDS011;70222;49.204;-122.940;2023-07-28T12:18:12;4.28;;;2.65;;
80707;SDS011;70222;49.204;-122.940;2023-07-28T12:20:49;4.35;;;2.85;;
80707;SDS011;70222;49.204;-122.940;2023-07-28T12:23:21;4.50;;;3.58;;
80707;SDS011;70222;49.204;-122.940;2023-07-28T12:25:48;4.55;;;3.50;;
80707;SDS011;70222;49.204;-122.940;2023-07-28T12:28:23;6.00;;;3.47;;
80707;SDS011;70222;49.204;-122.940;2023-07-28T12:30:49;4.60;;;3.50;;
80707;SDS011;70222;49.204;-122.940;2023-07-28T12:33:17;4.75;;;3.55;;
80707;SDS011;70222;49.204;-122.940;2023-07-28T12:35:43;6.18;;;4.00;;
80707;SDS011;70222;49.204;-122.940;2023-07-28T12:38:10;6.03;;;3.78;;
80707;SDS011;70222;49.204;-122.940;2023-07-28T12:40:36;5.15;;;4.00;;
80707;SDS011;70222;49.204;-122.940;2023-07-28T12:43:02;7.55;;;4.38;;
80707;SDS011;70222;49.204;-122.940;2023-07-28T12:45:30;4.70;;;3.38;;
80707;SDS011;70222;49.204;-122.940;2023-07-28T12:47:56;6.78;;;3.90;;
80707;SDS011;70222;49.204;-122.940;2023-07-28T12:50:23;6.75;;;3.28;;
80707;SDS011;70222;49.204;-122.940;2023-07-28T12:52:50;5.13;;;3.65;;
80707;SDS011;70222;49.204;-122.940;2023-07-28T12:55:17;6.97;;;3.45;;
80707;SDS011;70222;49.204;-122.940;2023-07-28T12:57:44;5.60;;;3.75;;
80707;SDS011;70222;49.204;-122.940;2023-07-28T13:00:10;5.20;;;3.75;;
80707;SDS011;70222;49.204;-122.940;2023-07-28T13:02:41;5.88;;;3.70;;
80707;SDS011;70222;49.204;-122.940;2023-07-28T13:05:08;9.23;;;3.92;;
80707;SDS011;70222;49.204;-122.940;2023-07-28T13:07:38;8.27;;;3.38;;
80707;SDS011;70222;49.204;-122.940;2023-07-28T13:10:06;6.45;;;3.22;;
80707;SDS011;70222;49.204;-122.940;2023-07-28T13:12:35;5.05;;;3.20;;
80707;SDS011;70222;49.204;-122.940;2023-07-28T13:15:01;4.82;;;3.50;;
80707;SDS011;70222;49.204;-122.940;2023-07-28T13:17:28;14.43;;;3.83;;
80707;SDS011;70222;49.204;-122.940;2023-07-28T13:19:54;4.97;;;3.60;;
80707;SDS011;70222;49.204;-122.940;2023-07-28T13:22:22;6.13;;;3.90;;
80707;SDS011;70222;49.204;-122.940;2023-07-28T13:24:49;5.22;;;3.10;;
80707;SDS011;70222;49.204;-122.940;2023-07-28T13:27:15;6.15;;;3.67;;
80707;SDS011;70222;49.204;-122.940;2023-07-28T13:29:41;4.78;;;3.83;;
80707;SDS011;70222;49.204;-122.940;2023-07-28T13:32:17;5.28;;;3.45;;
80707;SDS011;70222;49.204;-122.940;2023-07-28T13:34:44;6.65;;;3.60;;
80707;SDS011;70222;49.204;-122.940;2023-07-28T13:37:11;6.45;;;4.20;;
80707;SDS011;70222;49.204;-122.940;2023-07-28T13:39:37;5.18;;;3.72;;
80707;SDS011;70222;49.204;-122.940;2023-07-28T13:42:03;8.32;;;4.28;;
80707;SDS011;70222;49.204;-122.940;2023-07-28T13:44:29;5.57;;;3.78;;
80707;SDS011;70222;49.204;-122.940;2023-07-28T13:46:55;6.68;;;4.38;;
80707;SDS011;70222;49.204;-122.940;2023-07-28T13:49:21;5.20;;;3.53;;
80707;SDS011;70222;49.204;-122.940;2023-07-28T13:51:47;4.75;;;3.53;;
80707;SDS011;70222;49.204;-122.940;2023-07-28T13:54:13;5.53;;;3.58;;
80707;SDS011;70222;49.204;-122.940;2023-07-28T13:56:39;5.88;;;3.35;;
80707;SDS011;70222;49.204;-122.940;2023-07-28T13:59:06;6.03;;;3.70;;
80707;SDS011;70222;49.204;-122.940;2023-07-28T14:01:32;4.80;;;3.67;;
80707;SDS011;70222;49.204;-122.940;2023-07-28T14:03:58;6.75;;;3.15;;
80707;SDS011;70222;49.204;-122.940;2023-07-28T14:06:24;6.60;;;2.92;;
80707;SDS011;70222;49.204;-122.940;2023-07-28T14:08:50;5.35;;;3.28;;
80707;SDS011;70222;49.204;-122.940;2023-07-28T14:11:16;8.05;;;3.40;;
80707;SDS011;70222;49.204;-122.940;2023-07-28T14:17:04;4.80;;;2.60;;
80707;SDS011;70222;49.204;-122.940;2023-07-28T14:19:30;3.63;;;2.72;;
80707;SDS011;70222;49.204;-122.940;2023-07-28T14:21:56;5.15;;;3.13;;
80707;SDS011;70222;49.204;-122.940;2023-07-28T14:24:22;5.40;;;3.00;;
80707;SDS011;70222;49.204;-122.940;2023-07-28T14:26:48;4.30;;;3.20;;
80707;SDS011;70222;49.204;-122.940;2023-07-28T14:29:14;5.93;;;3.47;;
80707;SDS011;70222;49.204;-122.940;2023-07-28T14:31:40;4.15;;;3.35;;
80707;SDS011;70222;49.204;-122.940;2023-07-28T14:34:06;7.95;;;3.17;;
80707;SDS011;70222;49.204;-122.940;2023-07-28T14:36:32;5.50;;;3.33;;
80707;SDS011;70222;49.204;-122.940;2023-07-28T14:39:00;5.60;;;3.30;;
80707;SDS011;70222;49.204;-122.940;2023-07-28T14:41:26;5.18;;;3.13;;
80707;SDS011;70222;49.204;-122.940;2023-07-28T14:43:52;4.57;;;3.38;;
80707;SDS011;70222;49.204;-122.940;2023-07-28T14:46:18;7.28;;;4.00;;
80707;SDS011;70222;49.204;-122.940;2023-07-28T14:48:47;5.80;;;3.83;;
80707;SDS011;70222;49.204;-122.940;2023-07-28T14:51:15;5.78;;;3.83;;
80707;SDS011;70222;49.204;-122.940;2023-07-28T14:53:41;4.13;;;3.25;;
80707;SDS011;70222;49.204;-122.940;2023-07-28T14:56:08;6.53;;;4.85;;
80707;SDS011;70222;49.204;-122.940;2023-07-28T14:58:34;4.45;;;3.10;;